createdAt,value
2017-07-06T00:00:46.604Z,79.2
2017-07-06T00:01:53.140Z,79.7
2017-07-06T00:02:58.437Z,79.8
2017-07-06T00:04:02.891Z,80.2
2017-07-06T00:05:08.963Z,80.2
2017-07-06T00:06:15.742Z,80.4
2017-07-06T00:07:21.333Z,80.3
2017-07-06T00:08:29.354Z,80.4
2017-07-06T00:09:35.918Z,80.6
2017-07-06T00:10:42.864Z,81.0
2017-07-06T00:11:47.806Z,81.0
2017-07-06T00:12:53.731Z,81.1
2017-07-06T00:13:59.221Z,81.0
2017-07-06T00:15:06.938Z,81.5
2017-07-06T00:16:11.881Z,81.5
2017-07-06T00:17:18.505Z,81.6
2017-07-06T00:18:24.585Z,81.6
2017-07-06T00:19:30.197Z,81.9
2017-07-06T00:20:36.505Z,82.0
2017-07-06T00:21:41.673Z,82.1
2017-07-06T00:22:48.527Z,82.3
2017-07-06T00:23:52.849Z,82.5
2017-07-06T00:24:58.109Z,82.6
2017-07-06T00:26:04.183Z,82.8
2017-07-06T00:27:08.873Z,82.6
2017-07-06T00:28:14.586Z,82.9
2017-07-06T00:29:22.685Z,83.0
2017-07-06T00:30:29.458Z,83.2
2017-07-06T00:31:34.993Z,83.3
2017-07-06T00:32:40.507Z,83.2
2017-07-06T00:33:47.699Z,83.4
2017-07-06T00:34:52.793Z,83.5
2017-07-06T00:35:58.345Z,83.4
2017-07-06T00:37:06.197Z,83.6
2017-07-06T00:38:11.286Z,83.7
2017-07-06T00:39:18.200Z,83.9
2017-07-06T00:40:24.710Z,83.9
2017-07-06T00:41:29.204Z,83.8
2017-07-06T00:42:33.949Z,83.7
2017-07-06T00:43:40.033Z,83.8
2017-07-06T00:44:45.538Z,83.8
2017-07-06T00:45:51.516Z,83.7
2017-07-06T00:46:57.098Z,84.0
2017-07-06T00:48:03.084Z,83.9
2017-07-06T00:49:08.449Z,84.3
2017-07-06T00:50:14.918Z,84.4
2017-07-06T00:51:21.219Z,84.3
2017-07-06T00:52:26.822Z,84.4
2017-07-06T00:53:33.785Z,84.2
2017-07-06T00:54:41.734Z,84.5
2017-07-06T00:55:48.397Z,84.6
2017-07-06T00:56:54.173Z,84.8
2017-07-06T00:57:59.810Z,84.6
2017-07-06T00:59:07.412Z,84.8
2017-07-06T01:00:13.032Z,84.9
2017-07-06T01:01:17.588Z,85.1
2017-07-06T01:02:24.245Z,85.0
2017-07-06T01:03:29.742Z,85.1
2017-07-06T01:04:37.143Z,85.1
2017-07-06T01:05:43.260Z,85.2
2017-07-06T01:06:48.959Z,85.2
2017-07-06T01:07:54.954Z,85.4
2017-07-06T01:09:02.248Z,85.5
2017-07-06T01:10:08.201Z,85.5
2017-07-06T01:11:14.544Z,85.7
2017-07-06T01:12:21.538Z,85.6
2017-07-06T01:13:28.354Z,85.5
2017-07-06T01:14:35.397Z,85.7
2017-07-06T01:15:42.259Z,85.5
2017-07-06T01:16:47.551Z,85.2
2017-07-06T01:17:55.061Z,85.7
2017-07-06T01:19:00.771Z,85.8
2017-07-06T01:20:07.334Z,85.7
2017-07-06T01:21:15.770Z,85.9
2017-07-06T01:22:21.774Z,85.9
2017-07-06T01:23:25.245Z,86.0
2017-07-06T01:24:31.406Z,86.1
2017-07-06T01:25:37.695Z,86.3
2017-07-06T01:26:45.263Z,86.1
2017-07-06T01:27:52.919Z,86.7
2017-07-06T01:29:00.757Z,86.7
2017-07-06T01:30:09.982Z,86.7
2017-07-06T01:31:14.975Z,86.7
2017-07-06T01:32:19.989Z,86.9
2017-07-06T01:33:26.091Z,86.8
2017-07-06T01:34:32.471Z,86.9
2017-07-06T01:35:37.976Z,87.3
2017-07-06T01:36:43.054Z,87.3
2017-07-06T01:37:51.976Z,87.3
2017-07-06T01:38:59.301Z,87.4
2017-07-06T01:40:04.920Z,87.4
2017-07-06T01:41:10.638Z,87.4
2017-07-06T01:42:17.804Z,87.7
2017-07-06T01:43:23.065Z,87.6
2017-07-06T01:44:29.350Z,87.6
2017-07-06T01:45:35.808Z,87.5
2017-07-06T01:46:43.339Z,87.5
2017-07-06T01:47:48.813Z,87.4
2017-07-06T01:48:55.316Z,87.5
2017-07-06T01:49:59.907Z,87.8
2017-07-06T01:51:05.981Z,87.7
2017-07-06T01:52:12.704Z,87.8
2017-07-06T01:53:20.181Z,87.8
2017-07-06T01:54:25.993Z,87.7
2017-07-06T01:55:32.825Z,87.8
2017-07-06T01:56:38.829Z,88.0
2017-07-06T01:57:45.432Z,88.2
2017-07-06T01:58:51.753Z,88.0
2017-07-06T01:59:57.453Z,88.0
2017-07-06T02:01:03.288Z,87.9
2017-07-06T02:02:08.313Z,88.1
2017-07-06T02:03:14.463Z,88.1
2017-07-06T02:04:21.838Z,88.1
2017-07-06T02:05:28.845Z,88.2
2017-07-06T02:06:33.943Z,88.1
2017-07-06T02:07:38.496Z,88.3
2017-07-06T02:08:44.490Z,88.2
2017-07-06T02:09:52.464Z,88.3
2017-07-06T02:10:58.183Z,88.3
2017-07-06T02:12:06.351Z,88.3
2017-07-06T02:13:12.853Z,88.6
2017-07-06T02:14:18.812Z,88.6
2017-07-06T02:15:24.602Z,88.5
2017-07-06T02:16:30.858Z,88.5
2017-07-06T02:17:37.439Z,88.6
2017-07-06T02:18:43.864Z,88.7
2017-07-06T02:19:49.694Z,88.7
2017-07-06T02:20:55.639Z,88.9
2017-07-06T02:22:01.164Z,89.0
2017-07-06T02:23:06.810Z,88.8
2017-07-06T02:24:11.487Z,89.0
2017-07-06T02:25:17.855Z,89.1
2017-07-06T02:26:23.876Z,89.1
2017-07-06T02:27:28.471Z,89.0
2017-07-06T02:28:36.151Z,89.0
2017-07-06T02:29:41.768Z,89.2
2017-07-06T02:30:47.591Z,89.2
2017-07-06T02:31:53.970Z,89.2
2017-07-06T02:33:01.194Z,89.2
2017-07-06T02:34:06.384Z,89.2
2017-07-06T02:35:13.895Z,89.2
2017-07-06T02:36:20.520Z,89.2
2017-07-06T02:37:26.129Z,89.3
2017-07-06T02:38:33.899Z,89.2
2017-07-06T02:39:39.515Z,89.4
2017-07-06T02:40:45.611Z,89.5
2017-07-06T02:41:51.741Z,89.6
2017-07-06T02:42:57.238Z,89.7
2017-07-06T02:44:05.923Z,89.6
2017-07-06T02:45:10.404Z,89.7
2017-07-06T02:46:16.733Z,89.7
2017-07-06T02:47:24.133Z,89.8
2017-07-06T02:48:29.164Z,89.8
2017-07-06T02:49:35.234Z,89.9
2017-07-06T02:50:41.383Z,89.9
2017-07-06T02:51:48.387Z,89.9
2017-07-06T02:52:54.943Z,89.9
2017-07-06T02:54:01.560Z,89.8
2017-07-06T02:55:08.155Z,89.8
2017-07-06T02:56:15.946Z,89.8
2017-07-06T02:57:19.550Z,89.8
2017-07-06T02:58:26.216Z,89.9
2017-07-06T02:59:32.236Z,89.9
2017-07-06T03:00:38.311Z,89.9
2017-07-06T03:01:45.511Z,89.9
2017-07-06T03:02:53.983Z,89.9
2017-07-06T03:03:58.935Z,90.0
2017-07-06T03:05:05.356Z,90.1
2017-07-06T03:06:11.446Z,90.2
2017-07-06T03:07:18.125Z,90.2
2017-07-06T03:08:23.825Z,90.2
2017-07-06T03:09:28.554Z,90.3
2017-07-06T03:10:34.718Z,90.4
2017-07-06T03:11:42.664Z,90.3
2017-07-06T03:12:49.374Z,90.3
2017-07-06T03:13:57.478Z,90.4
2017-07-06T03:15:00.187Z,90.6
2017-07-06T03:16:06.028Z,90.4
2017-07-06T03:17:11.793Z,90.4
2017-07-06T03:18:17.267Z,90.6
2017-07-06T03:19:22.916Z,90.5
2017-07-06T03:20:28.202Z,90.6
2017-07-06T03:21:33.537Z,90.6
2017-07-06T03:22:38.121Z,90.5
2017-07-06T03:23:44.135Z,90.6
2017-07-06T03:24:49.185Z,90.6
2017-07-06T03:25:54.721Z,90.6
2017-07-06T03:27:02.185Z,90.7
2017-07-06T03:28:07.474Z,90.7
2017-07-06T03:29:13.468Z,90.8
2017-07-06T03:30:21.487Z,90.8
2017-07-06T03:31:25.658Z,90.8
2017-07-06T03:32:32.288Z,90.8
2017-07-06T03:33:38.699Z,90.8
2017-07-06T03:34:44.989Z,90.8
2017-07-06T03:35:50.986Z,90.9
2017-07-06T03:36:57.003Z,91.1
2017-07-06T03:38:01.989Z,91.2
2017-07-06T03:39:07.508Z,91.0
2017-07-06T03:40:13.408Z,90.9
2017-07-06T03:41:19.552Z,90.9
2017-07-06T03:42:26.080Z,91.0
2017-07-06T03:43:31.290Z,91.0
2017-07-06T03:44:37.000Z,91.0
2017-07-06T03:45:41.913Z,90.8
2017-07-06T03:46:48.365Z,90.9
2017-07-06T03:47:54.462Z,90.9
2017-07-06T03:49:01.258Z,91.0
2017-07-06T03:50:07.508Z,90.9
2017-07-06T03:51:13.010Z,90.9
2017-07-06T03:52:18.171Z,90.8
2017-07-06T03:53:24.867Z,90.7
2017-07-06T03:54:32.005Z,90.8
2017-07-06T03:55:37.186Z,90.8
2017-07-06T03:56:44.583Z,91.0
2017-07-06T03:57:50.001Z,90.9
2017-07-06T03:58:56.128Z,90.8
2017-07-06T04:00:03.412Z,90.8
2017-07-06T04:01:09.178Z,90.8
2017-07-06T04:02:17.235Z,90.7
2017-07-06T04:03:25.774Z,90.7
2017-07-06T04:04:34.053Z,90.6
2017-07-06T04:05:38.147Z,90.6
2017-07-06T04:06:43.101Z,90.4
2017-07-06T04:07:48.024Z,91.0
2017-07-06T04:08:55.541Z,90.8
2017-07-06T04:10:00.638Z,90.6
2017-07-06T04:11:06.186Z,90.6
2017-07-06T04:12:13.734Z,90.7
2017-07-06T04:13:19.552Z,90.4
2017-07-06T04:14:26.049Z,90.2
2017-07-06T04:15:31.678Z,90.3
2017-07-06T04:16:36.601Z,90.6
2017-07-06T04:17:40.925Z,90.7
2017-07-06T04:18:45.295Z,90.6
2017-07-06T04:19:50.727Z,90.1
2017-07-06T04:20:55.861Z,90.2
2017-07-06T04:22:05.670Z,90.2
2017-07-06T04:23:09.970Z,90.3
2017-07-06T04:24:17.401Z,90.1
2017-07-06T04:25:24.293Z,90.0
2017-07-06T04:26:28.794Z,90.0
2017-07-06T04:27:35.656Z,89.9
2017-07-06T04:28:41.245Z,89.4
2017-07-06T04:29:47.038Z,89.8
2017-07-06T04:30:53.631Z,89.8
2017-07-06T04:32:00.945Z,89.3
2017-07-06T04:33:07.175Z,89.3
2017-07-06T04:34:13.927Z,89.4
2017-07-06T04:35:19.939Z,88.9
2017-07-06T04:36:26.588Z,88.9
2017-07-06T04:37:31.173Z,88.8
2017-07-06T04:38:36.782Z,89.0
2017-07-06T04:39:43.208Z,88.5
2017-07-06T04:40:50.939Z,88.6
2017-07-06T04:41:58.091Z,88.5
2017-07-06T04:43:04.095Z,89.0
2017-07-06T04:44:10.250Z,88.8
2017-07-06T04:45:16.095Z,88.3
2017-07-06T04:46:20.992Z,88.3
2017-07-06T04:47:27.535Z,88.3
2017-07-06T04:48:34.044Z,88.2
2017-07-06T04:49:40.026Z,88.3
2017-07-06T04:50:46.608Z,88.4
2017-07-06T04:51:52.759Z,88.6
2017-07-06T04:52:58.070Z,88.5
2017-07-06T04:54:05.450Z,88.4
2017-07-06T04:55:12.003Z,88.1
2017-07-06T04:56:18.511Z,87.9
2017-07-06T04:57:24.028Z,87.8
2017-07-06T04:58:31.177Z,87.7
2017-07-06T04:59:36.772Z,88.0
2017-07-06T05:00:43.729Z,87.2
2017-07-06T05:01:49.363Z,87.1
2017-07-06T05:02:55.997Z,87.1
2017-07-06T05:04:02.040Z,87.0
2017-07-06T05:05:07.707Z,86.9
2017-07-06T05:06:15.702Z,86.7
2017-07-06T05:07:20.819Z,86.6
2017-07-06T05:08:27.102Z,86.5
2017-07-06T05:09:33.060Z,86.4
2017-07-06T05:10:41.641Z,86.2
2017-07-06T05:11:47.272Z,85.9
2017-07-06T05:12:53.142Z,85.8
2017-07-06T05:13:58.902Z,85.8
2017-07-06T05:15:03.862Z,85.8
2017-07-06T05:16:10.401Z,85.4
2017-07-06T05:17:16.669Z,85.0
2017-07-06T05:18:21.649Z,85.2
2017-07-06T05:19:27.154Z,85.0
2017-07-06T05:20:33.817Z,84.9
2017-07-06T05:21:38.641Z,84.8
2017-07-06T05:22:44.272Z,84.5
2017-07-06T05:23:50.407Z,84.0
2017-07-06T05:24:56.429Z,84.1
2017-07-06T05:26:02.665Z,84.1
2017-07-06T05:27:09.166Z,84.0
2017-07-06T05:28:15.670Z,83.9
2017-07-06T05:29:19.453Z,83.6
2017-07-06T05:30:25.169Z,83.3
2017-07-06T05:31:30.654Z,83.4
2017-07-06T05:32:37.676Z,83.4
2017-07-06T05:33:42.826Z,83.0
2017-07-06T05:34:50.538Z,83.4
2017-07-06T05:35:56.344Z,82.9
2017-07-06T05:37:04.180Z,83.4
2017-07-06T05:38:11.414Z,83.2
2017-07-06T05:39:18.694Z,83.0
2017-07-06T05:40:22.834Z,82.8
2017-07-06T05:41:29.334Z,82.6
2017-07-06T05:42:37.052Z,82.6
2017-07-06T05:43:43.194Z,82.6
2017-07-06T05:44:47.714Z,83.0
2017-07-06T05:45:53.865Z,82.6
2017-07-06T05:47:01.224Z,82.5
2017-07-06T05:48:06.439Z,82.6
2017-07-06T05:49:11.092Z,82.5
2017-07-06T05:50:17.701Z,82.3
2017-07-06T05:51:21.774Z,82.0
2017-07-06T05:52:28.310Z,81.8
2017-07-06T05:53:35.209Z,81.3
2017-07-06T05:54:41.970Z,81.4
2017-07-06T05:55:48.711Z,81.3
2017-07-06T05:56:54.269Z,80.9
2017-07-06T05:58:00.700Z,80.9
2017-07-06T05:59:08.216Z,80.7
2017-07-06T06:00:14.717Z,80.3
2017-07-06T06:01:19.386Z,79.0
2017-07-06T06:02:24.692Z,79.4
2017-07-06T06:03:32.224Z,78.8
2017-07-06T06:04:39.725Z,78.9
2017-07-06T06:05:45.059Z,79.0
2017-07-06T06:06:51.043Z,78.6
2017-07-06T06:07:58.586Z,78.9
2017-07-06T06:09:04.270Z,78.5
2017-07-06T06:10:09.740Z,77.8
2017-07-06T06:11:15.237Z,77.9
2017-07-06T06:12:21.239Z,77.7
2017-07-06T06:13:25.781Z,77.7
2017-07-06T06:14:34.251Z,77.5
2017-07-06T06:15:37.288Z,77.5
2017-07-06T06:16:44.742Z,77.4
2017-07-06T06:17:53.884Z,77.2
2017-07-06T06:18:58.991Z,76.9
2017-07-06T06:20:03.722Z,77.0
2017-07-06T06:21:10.416Z,77.1
2017-07-06T06:22:16.253Z,77.0
2017-07-06T06:23:20.988Z,76.8
2017-07-06T06:24:26.756Z,76.9
2017-07-06T06:25:33.066Z,75.9
2017-07-06T06:26:40.467Z,76.4
2017-07-06T06:27:46.301Z,76.3
2017-07-06T06:28:51.867Z,76.6
2017-07-06T06:29:58.031Z,76.0
2017-07-06T06:31:05.767Z,75.9
2017-07-06T06:32:11.771Z,75.7
2017-07-06T06:33:19.424Z,75.9
2017-07-06T06:34:25.630Z,75.5
2017-07-06T06:35:31.021Z,75.6
2017-07-06T06:36:36.317Z,75.9
2017-07-06T06:37:41.103Z,75.3
2017-07-06T06:38:49.552Z,75.8
2017-07-06T06:39:55.983Z,75.7
2017-07-06T06:41:01.908Z,75.3
2017-07-06T06:42:08.087Z,75.4
2017-07-06T06:43:13.788Z,75.4
2017-07-06T06:44:21.834Z,74.8
2017-07-06T06:45:28.254Z,75.1
2017-07-06T06:46:34.397Z,75.0
2017-07-06T06:47:39.632Z,75.3
2017-07-06T06:48:44.419Z,75.0
2017-07-06T06:49:49.298Z,74.5
2017-07-06T06:50:54.048Z,74.4
2017-07-06T06:52:00.097Z,74.1
2017-07-06T06:53:06.103Z,74.1
2017-07-06T06:54:13.648Z,74.2
2017-07-06T06:55:20.501Z,73.7
2017-07-06T06:56:28.437Z,72.6
2017-07-06T06:57:34.706Z,72.3
2017-07-06T06:58:41.916Z,71.9
2017-07-06T06:59:47.827Z,72.1
2017-07-06T07:00:53.816Z,72.5
2017-07-06T07:01:58.201Z,72.0
2017-07-06T07:03:04.453Z,71.8
2017-07-06T07:04:11.591Z,72.1
2017-07-06T07:05:19.040Z,71.1
2017-07-06T07:06:27.846Z,71.0
2017-07-06T07:07:35.550Z,71.5
2017-07-06T07:08:41.733Z,70.8
2017-07-06T07:09:48.854Z,70.6
2017-07-06T07:10:55.386Z,70.2
2017-07-06T07:12:01.463Z,71.0
2017-07-06T07:13:08.941Z,71.2
2017-07-06T07:14:15.242Z,70.1
2017-07-06T07:15:20.582Z,69.8
2017-07-06T07:16:27.571Z,69.9
2017-07-06T07:17:33.839Z,69.6
2017-07-06T07:18:41.277Z,68.8
2017-07-06T07:19:46.881Z,68.8
2017-07-06T07:20:53.667Z,68.6
2017-07-06T07:21:59.841Z,69.2
2017-07-06T07:23:06.780Z,69.7
2017-07-06T07:24:12.763Z,68.9
2017-07-06T07:25:18.030Z,68.5
2017-07-06T07:26:23.520Z,68.5
2017-07-06T07:27:28.751Z,68.5
2017-07-06T07:28:35.255Z,68.2
2017-07-06T07:29:41.140Z,68.6
2017-07-06T07:30:49.181Z,68.5
2017-07-06T07:31:54.866Z,68.4
2017-07-06T07:33:01.284Z,68.1
2017-07-06T07:34:08.871Z,67.2
2017-07-06T07:35:14.418Z,68.2
2017-07-06T07:36:21.238Z,68.0
2017-07-06T07:37:27.901Z,67.8
2017-07-06T07:38:34.879Z,66.8
2017-07-06T07:39:38.433Z,66.8
2017-07-06T07:40:45.187Z,67.0
2017-07-06T07:41:53.552Z,67.8
2017-07-06T07:43:00.081Z,67.4
2017-07-06T07:44:07.118Z,66.6
2017-07-06T07:45:13.564Z,66.9
2017-07-06T07:46:21.243Z,67.9
2017-07-06T07:47:26.014Z,66.9
2017-07-06T07:48:34.164Z,67.3
2017-07-06T07:49:41.228Z,66.5
2017-07-06T07:50:47.601Z,66.9
2017-07-06T07:51:53.555Z,66.6
2017-07-06T07:53:02.652Z,67.6
2017-07-06T07:54:09.226Z,65.6
2017-07-06T07:55:15.417Z,66.1
2017-07-06T07:56:21.670Z,65.5
2017-07-06T07:57:26.917Z,65.9
2017-07-06T07:58:32.672Z,65.6
2017-07-06T07:59:39.413Z,65.9
2017-07-06T08:00:45.428Z,64.7
2017-07-06T08:01:52.145Z,65.7
2017-07-06T08:02:58.340Z,65.1
2017-07-06T08:04:04.735Z,65.2
2017-07-06T08:05:09.827Z,64.3
2017-07-06T08:06:15.416Z,64.1
2017-07-06T08:07:21.433Z,64.1
2017-07-06T08:08:25.984Z,66.5
2017-07-06T08:09:32.990Z,66.9
2017-07-06T08:10:40.107Z,65.1
2017-07-06T08:11:44.857Z,64.9
2017-07-06T08:12:50.960Z,64.0
2017-07-06T08:14:00.952Z,67.0
2017-07-06T08:15:11.122Z,63.3
2017-07-06T08:16:24.948Z,64.4
2017-07-06T08:17:36.444Z,66.1
2017-07-06T08:18:45.257Z,66.4
2017-07-06T08:19:57.950Z,66.0
2017-07-06T08:21:07.004Z,63.8
2017-07-06T08:22:21.746Z,63.0
2017-07-06T08:23:36.973Z,60.1
2017-07-06T08:24:45.483Z,59.7
2017-07-06T08:25:53.050Z,59.7
2017-07-06T08:27:03.425Z,58.9
2017-07-06T08:28:13.463Z,57.2
2017-07-06T08:29:22.970Z,58.2
2017-07-06T08:30:32.073Z,58.5
2017-07-06T08:31:41.580Z,57.8
2017-07-06T08:32:52.487Z,57.5
2017-07-06T08:34:00.521Z,57.3
2017-07-06T08:35:10.801Z,58.8
2017-07-06T08:36:21.499Z,58.3
2017-07-06T08:37:30.475Z,58.7
2017-07-06T08:38:38.742Z,58.0
2017-07-06T08:39:47.116Z,57.5
2017-07-06T08:40:54.987Z,57.8
2017-07-06T08:42:02.108Z,58.5
2017-07-06T08:43:11.169Z,55.8
2017-07-06T08:44:20.093Z,57.1
2017-07-06T08:45:29.184Z,55.6
2017-07-06T08:46:39.167Z,56.1
2017-07-06T08:47:48.014Z,56.1
2017-07-06T08:48:55.993Z,54.9
2017-07-06T08:50:04.680Z,55.9
2017-07-06T08:51:13.501Z,55.5
2017-07-06T08:52:20.500Z,55.4
2017-07-06T08:53:28.521Z,56.9
2017-07-06T08:54:35.460Z,54.9
2017-07-06T08:55:44.897Z,55.7
2017-07-06T08:56:56.647Z,57.2
2017-07-06T08:58:05.301Z,55.8
2017-07-06T08:59:13.202Z,55.0
2017-07-06T09:00:21.196Z,55.3
2017-07-06T09:01:30.903Z,54.6
2017-07-06T09:02:41.540Z,52.3
2017-07-06T09:03:46.447Z,53.1
2017-07-06T09:04:54.736Z,54.5
2017-07-06T09:06:02.545Z,55.6
2017-07-06T09:07:13.054Z,56.1
2017-07-06T09:08:17.140Z,55.5
2017-07-06T09:09:25.228Z,55.1
2017-07-06T09:10:33.735Z,52.8
2017-07-06T09:11:44.060Z,51.7
2017-07-06T09:12:50.979Z,52.7
2017-07-06T09:13:58.628Z,54.1
2017-07-06T09:15:07.119Z,53.4
2017-07-06T09:16:16.541Z,52.1
2017-07-06T09:17:24.269Z,51.6
2017-07-06T09:18:33.246Z,54.1
2017-07-06T09:19:41.953Z,54.7
2017-07-06T09:20:49.660Z,54.4
2017-07-06T09:21:58.051Z,54.3
2017-07-06T09:23:04.792Z,53.8
2017-07-06T09:24:14.719Z,52.6
2017-07-06T09:25:22.745Z,50.0
2017-07-06T09:26:30.518Z,48.4
2017-07-06T09:27:40.562Z,52.0
2017-07-06T09:28:47.092Z,49.5
2017-07-06T09:29:55.063Z,50.0
2017-07-06T09:31:01.712Z,51.9
2017-07-06T09:32:10.138Z,51.3
2017-07-06T09:33:18.597Z,51.5
2017-07-06T09:34:26.082Z,50.8
2017-07-06T09:35:32.581Z,48.8
2017-07-06T09:36:41.226Z,49.6
2017-07-06T09:37:51.809Z,50.0
2017-07-06T09:38:59.580Z,49.9
2017-07-06T09:40:07.473Z,49.0
2017-07-06T09:41:16.477Z,51.3
2017-07-06T09:42:27.583Z,50.5
2017-07-06T09:43:33.679Z,48.6
2017-07-06T09:44:40.970Z,50.7
2017-07-06T09:45:50.331Z,50.5
2017-07-06T09:46:58.899Z,51.3
2017-07-06T09:48:05.344Z,50.6
2017-07-06T09:49:13.582Z,51.5
2017-07-06T09:50:23.343Z,50.6
2017-07-06T09:51:31.526Z,50.4
2017-07-06T09:52:41.113Z,50.6
2017-07-06T09:53:48.706Z,49.7
2017-07-06T09:54:57.921Z,49.4
2017-07-06T09:56:06.106Z,50.3
2017-07-06T09:57:13.739Z,47.2
2017-07-06T09:58:24.119Z,50.1
2017-07-06T09:59:32.218Z,48.8
2017-07-06T10:00:41.352Z,50.6
2017-07-06T10:01:49.649Z,50.0
2017-07-06T10:02:58.971Z,48.9
2017-07-06T10:04:05.871Z,48.6
2017-07-06T10:05:13.569Z,50.0
2017-07-06T10:06:23.250Z,50.2
2017-07-06T10:07:32.176Z,50.0
2017-07-06T10:08:39.669Z,49.0
2017-07-06T10:09:46.326Z,48.5
2017-07-06T10:10:56.646Z,49.2
2017-07-06T10:12:04.718Z,49.6
2017-07-06T10:13:13.256Z,50.5
2017-07-06T10:14:20.889Z,50.2
2017-07-06T10:15:30.234Z,50.1
2017-07-06T10:16:40.351Z,48.0
2017-07-06T10:17:49.970Z,47.2
2017-07-06T10:18:58.311Z,49.1
2017-07-06T10:20:05.854Z,49.1
2017-07-06T10:21:12.692Z,49.9
2017-07-06T10:22:20.004Z,50.0
2017-07-06T10:23:27.656Z,50.0
2017-07-06T10:24:35.076Z,49.6
2017-07-06T10:25:43.171Z,47.8
2017-07-06T10:26:51.162Z,48.7
2017-07-06T10:27:57.313Z,46.4
2017-07-06T10:29:07.161Z,48.2
2017-07-06T10:30:15.168Z,49.0
2017-07-06T10:31:23.168Z,49.3
2017-07-06T10:32:28.138Z,50.2
2017-07-06T10:33:34.773Z,50.4
2017-07-06T10:34:43.172Z,49.3
2017-07-06T10:35:50.343Z,48.3
2017-07-06T10:36:58.966Z,49.1
2017-07-06T10:38:08.184Z,48.9
2017-07-06T10:39:14.314Z,49.8
2017-07-06T10:40:21.843Z,49.9
2017-07-06T10:41:29.865Z,48.5
2017-07-06T10:42:39.187Z,48.1
2017-07-06T10:43:48.358Z,47.8
2017-07-06T10:44:56.938Z,47.6
2017-07-06T10:46:04.992Z,47.9
2017-07-06T10:47:14.697Z,48.5
2017-07-06T10:48:20.726Z,46.8
2017-07-06T10:49:31.741Z,47.8
2017-07-06T10:50:39.626Z,47.9
2017-07-06T10:51:49.699Z,47.5
2017-07-06T10:52:59.729Z,49.0
2017-07-06T10:54:11.203Z,49.8
2017-07-06T10:55:17.234Z,49.0
2017-07-06T10:56:26.210Z,49.5
2017-07-06T10:57:35.208Z,49.0
2017-07-06T10:58:42.999Z,48.6
2017-07-06T10:59:49.537Z,49.0
2017-07-06T11:00:58.355Z,47.7
2017-07-06T11:02:05.998Z,48.5
2017-07-06T11:03:14.500Z,47.5
2017-07-06T11:04:22.341Z,47.7
2017-07-06T11:05:30.533Z,47.1
2017-07-06T11:06:41.833Z,47.6
2017-07-06T11:07:50.921Z,48.5
2017-07-06T11:09:00.738Z,48.8
2017-07-06T11:10:06.600Z,49.7
2017-07-06T11:11:16.067Z,47.8
2017-07-06T11:12:24.133Z,48.6
2017-07-06T11:13:35.762Z,48.1
2017-07-06T12:52:58.975Z,47.8
2017-07-06T13:06:46.645Z,49.3
2017-07-06T13:07:51.761Z,50.7
2017-07-06T13:08:57.578Z,54.7
2017-07-06T13:10:04.448Z,54.1
2017-07-06T13:11:11.143Z,53.7
2017-07-06T13:12:18.963Z,54.6
2017-07-06T13:13:26.575Z,54.4
2017-07-06T13:14:32.405Z,54.3
2017-07-06T13:15:40.588Z,52.9
2017-07-06T13:16:46.241Z,53.5
2017-07-06T13:17:53.754Z,53.8
2017-07-06T13:19:02.052Z,54.3
2017-07-06T13:20:09.925Z,54.2
2017-07-06T13:21:16.146Z,53.2
2017-07-06T13:22:23.787Z,54.3
2017-07-06T13:23:30.096Z,52.7
2017-07-06T13:24:35.229Z,53.1
2017-07-06T13:25:41.261Z,52.6
2017-07-06T13:26:48.783Z,52.9
2017-07-06T13:28:05.135Z,48.2
2017-07-06T13:29:15.621Z,45.5
2017-07-06T13:30:29.600Z,45.9
2017-07-06T13:31:37.613Z,46.1
2017-07-06T13:32:49.618Z,46.0
2017-07-06T13:34:04.102Z,45.6
2017-07-06T13:35:09.607Z,45.0
2017-07-06T13:36:22.111Z,44.5
2017-07-06T13:37:31.123Z,45.4
2017-07-06T13:38:43.613Z,44.7
2017-07-06T13:39:52.110Z,45.2
2017-07-06T13:41:03.784Z,44.1
2017-07-06T13:42:13.411Z,44.3
2017-07-06T13:43:21.855Z,45.1
2017-07-06T13:44:38.647Z,45.4
2017-07-06T13:45:45.497Z,43.1
2017-07-06T13:46:54.420Z,43.6
2017-07-06T13:48:09.434Z,43.4
2017-07-06T13:49:21.147Z,44.0
2017-07-06T13:50:33.660Z,43.8
2017-07-06T13:51:40.203Z,42.0
2017-07-06T13:52:49.841Z,42.5
2017-07-06T13:53:58.369Z,43.1
2017-07-06T13:55:09.071Z,44.3
2017-07-06T13:56:21.657Z,44.2
2017-07-06T13:57:33.218Z,43.0
2017-07-06T13:58:35.662Z,42.4
2017-07-06T13:59:45.031Z,43.2
2017-07-06T14:00:55.358Z,43.2
2017-07-06T14:02:08.688Z,43.5
2017-07-06T14:03:19.707Z,44.2
2017-07-06T14:04:30.174Z,42.6
2017-07-06T14:05:47.158Z,39.4
2017-07-06T14:06:53.621Z,41.5
2017-07-06T14:08:03.162Z,42.7
2017-07-06T14:09:14.913Z,41.5
2017-07-06T14:10:23.855Z,40.8
2017-07-06T14:11:33.872Z,41.6
2017-07-06T14:12:44.183Z,41.8
2017-07-06T14:13:54.315Z,42.9
2017-07-06T14:15:01.930Z,43.2
2017-07-06T14:16:11.693Z,43.3
2017-07-06T14:17:20.350Z,41.7
2017-07-06T14:18:29.182Z,41.9
2017-07-06T14:19:34.882Z,42.9
2017-07-06T14:20:43.690Z,43.4
2017-07-06T14:21:48.997Z,44.3
2017-07-06T14:22:55.699Z,44.8
2017-07-06T14:24:03.469Z,44.6
2017-07-06T14:25:11.817Z,44.8
2017-07-06T14:26:18.741Z,45.0
2017-07-06T14:27:25.294Z,45.5
2017-07-06T14:28:32.669Z,44.8
2017-07-06T14:29:41.198Z,44.2
2017-07-06T14:30:49.884Z,44.3
2017-07-06T14:31:58.226Z,44.4
2017-07-06T14:33:06.002Z,45.3
2017-07-06T14:34:13.231Z,45.5
2017-07-06T14:35:19.577Z,45.5
2017-07-06T14:36:26.532Z,46.2
2017-07-06T14:37:33.370Z,46.7
2017-07-06T14:38:41.232Z,46.7
2017-07-06T14:39:47.417Z,47.4
2017-07-06T14:40:53.220Z,47.7
2017-07-06T14:42:01.759Z,48.1
2017-07-06T14:43:05.360Z,46.4
2017-07-06T14:44:11.906Z,46.0
2017-07-06T14:45:17.892Z,45.7
2017-07-06T14:46:23.998Z,46.2
2017-07-06T14:47:32.470Z,46.7
2017-07-06T14:48:40.734Z,47.1
2017-07-06T14:49:53.040Z,47.9
2017-07-06T14:51:02.747Z,48.5
2017-07-06T14:52:12.756Z,48.9
2017-07-06T14:53:21.467Z,49.4
2017-07-06T14:54:31.580Z,50.1
2017-07-06T14:55:41.249Z,50.7
2017-07-06T14:56:49.748Z,50.8
2017-07-06T14:57:54.627Z,51.2
2017-07-06T14:59:03.525Z,51.5
2017-07-06T15:00:12.257Z,51.9
2017-07-06T15:01:19.351Z,52.0
2017-07-06T15:02:28.289Z,52.1
2017-07-06T15:03:36.770Z,51.8
2017-07-06T15:04:43.293Z,51.8
2017-07-06T15:05:52.324Z,51.9
2017-07-06T15:07:02.378Z,52.3
2017-07-06T15:08:11.786Z,52.4
2017-07-06T15:09:22.724Z,52.6
2017-07-06T15:10:26.820Z,52.8
2017-07-06T15:11:31.090Z,52.9
2017-07-06T15:12:35.354Z,53.1
2017-07-06T15:13:39.585Z,53.3
2017-07-06T15:14:44.293Z,53.4
2017-07-06T15:15:48.450Z,53.5
2017-07-06T15:16:52.529Z,53.6
2017-07-06T15:17:56.681Z,53.7
2017-07-06T15:19:01.033Z,53.7
2017-07-06T15:20:05.162Z,53.9
2017-07-06T15:21:09.385Z,53.9
2017-07-06T15:22:13.441Z,53.9
2017-07-06T15:23:17.580Z,53.8
2017-07-06T15:24:21.711Z,54.1
2017-07-06T15:25:26.318Z,54.1
2017-07-06T15:26:30.538Z,54.7
2017-07-06T15:27:34.757Z,55.5
2017-07-06T15:28:39.094Z,56.0
2017-07-06T15:29:43.782Z,56.8
2017-07-06T15:30:49.729Z,59.9
2017-07-06T15:31:55.298Z,60.5
2017-07-06T15:33:00.669Z,61.8
2017-07-06T15:34:05.936Z,63.0
2017-07-06T15:35:14.196Z,63.0
2017-07-06T15:37:27.928Z,63.6
2017-07-06T20:07:38.722Z,85.2
2017-07-06T20:08:44.926Z,83.5
2017-07-06T20:09:48.805Z,81.2
2017-07-06T20:10:54.336Z,79.6
2017-07-06T20:12:00.775Z,78.5
2017-07-06T20:13:09.080Z,77.8
2017-07-06T20:14:13.685Z,77.2
2017-07-06T20:15:21.080Z,76.8
2017-07-06T20:16:26.255Z,76.6
2017-07-06T20:17:31.972Z,76.4
2017-07-06T20:18:37.831Z,76.2
2017-07-06T20:19:46.339Z,75.8
2017-07-06T20:20:50.773Z,75.5
2017-07-06T20:21:55.624Z,75.3
2017-07-06T20:23:00.075Z,75.2
2017-07-06T20:24:05.862Z,74.9
2017-07-06T20:25:11.263Z,74.7
2017-07-06T20:26:19.275Z,74.6
2017-07-06T20:27:25.260Z,74.8
2017-07-06T20:28:32.373Z,75.2
2017-07-06T20:29:37.692Z,75.5
2017-07-06T20:30:43.880Z,75.7
2017-07-06T20:31:50.898Z,75.8
2017-07-06T20:32:57.008Z,75.8
2017-07-06T20:34:02.122Z,75.7
2017-07-06T20:35:07.023Z,75.5
2017-07-06T20:36:15.615Z,75.3
2017-07-06T20:37:20.537Z,75.2
2017-07-06T20:38:25.211Z,75.2
2017-07-06T20:39:32.509Z,75.5
2017-07-06T20:40:38.865Z,75.7
2017-07-06T20:41:46.128Z,76.1
2017-07-06T20:42:52.527Z,76.3
2017-07-06T20:43:58.651Z,76.5
2017-07-06T20:45:03.637Z,76.8
2017-07-06T20:46:08.205Z,76.9
2017-07-06T20:47:13.814Z,76.8
2017-07-06T20:48:19.458Z,76.5
2017-07-06T20:49:26.645Z,76.3
2017-07-06T20:50:31.809Z,76.4
2017-07-06T20:51:37.368Z,76.3
2017-07-06T20:52:44.159Z,76.0
2017-07-06T20:53:50.154Z,75.9
2017-07-06T20:54:55.079Z,76.2
2017-07-06T20:56:00.875Z,76.4
2017-07-06T20:57:07.659Z,76.4
2017-07-06T20:58:13.151Z,76.2
2017-07-06T20:59:20.195Z,76.2
2017-07-06T21:00:25.599Z,76.4
2017-07-06T21:01:30.883Z,76.5
2017-07-06T21:02:36.366Z,76.5
2017-07-06T21:03:42.636Z,76.7
2017-07-06T21:04:49.224Z,76.8
2017-07-06T21:05:55.668Z,76.8
2017-07-06T21:07:03.166Z,76.8
2017-07-06T21:08:07.702Z,76.9
2017-07-06T21:09:15.171Z,76.8
2017-07-06T21:10:20.358Z,76.6
2017-07-06T21:11:26.482Z,76.5
2017-07-06T21:12:32.892Z,76.5